KHNB

Huntingburg Airport

Huntingburg, Indiana, USA
KHNB 162320Z 1700/1724 29005KT P6SM VCSH SCT050 FM170400 31004KT P6SM FEW040 FM170800 36004KT 4SM BR SCT025 FM171300 01008KT P6SM FEW035
Issued Valid From Valid To
Jul-16 @ 23:20 UTC
(an hour ago)
Jul-17 @ 00:00 UTC
(26 minutes ago)
Jul-18 @ 00:00 UTC
(in 24 hours)
Jul-17 @ 00:00 to Jul-17 @ 04:00
KHNB 162320Z 1700/1724 29005KT P6SM VCSH SCT050
Wind Visibility Clouds
290° at 5 knots Greater than 6 miles
  • Scattered at 5,000' AGL
From Jul-17 @ 04:00 to Jul-17 @ 08:00
FM170400 31004KT P6SM FEW040
Wind Visibility Clouds
310° at 4 knots Greater than 6 miles
  • Few at 4,000' AGL
From Jul-17 @ 08:00 to Jul-17 @ 13:00
FM170800 36004KT 4SM BR SCT025
Wind Visibility Clouds Conditions
360° at 4 knots 4 miles
  • Scattered at 2,500' AGL
  • Mist
From Jul-17 @ 13:00 to Jul-18 @ 00:00
FM171300 01008KT P6SM FEW035
Wind Visibility Clouds
10° at 8 knots Greater than 6 miles
  • Few at 3,500' AGL
KHNB 162320Z 1700/1724 29005KT P6SM VCSH SCT050 FM170400 31004KT P6SM FEW040 FM170800 36004KT 4SM BR SCT025 FM171300 01008KT P6SM FEW035
Issued Jul-16 @ 23:20 UTC
(an hour ago)
Valid From Jul-17 @ 00:00 UTC
(26 minutes ago)
Valid To Jul-18 @ 00:00 UTC
(in 24 hours)
Jul-17 @ 00:00 - Jul-17 @ 04:00
Wind Visibility
290° at 5 knots Greater than 6 miles
Clouds
  • Scattered at 5,000' AGL
From Jul-17 @ 04:00 - Jul-17 @ 08:00
Wind Visibility
310° at 4 knots Greater than 6 miles
Clouds
  • Few at 4,000' AGL
From Jul-17 @ 08:00 - Jul-17 @ 13:00
Wind Visibility
360° at 4 knots 4 miles
Clouds
  • Scattered at 2,500' AGL
Conditions
  • Mist
From Jul-17 @ 13:00 - Jul-18 @ 00:00
Wind Visibility
10° at 8 knots Greater than 6 miles
Clouds
  • Few at 3,500' AGL